Main page
METAR-TAF:

METAR-TAF

Airports :

Haneda Airport

Tokyo-Haneda, Japan

latitude: 35-33N, longitude: 139-47E, elevation: 5 m

Current weather observation

The report was made 25 minutes ago, at 22:00 UTC
Wind 5 kt from the Northeast
Temperature 22°C
Humidity 78%
Pressure 1015 hPa
Visibility 10 km or more
Few clouds at a height of 1500 ft

METAR: RJTT 182200Z 05005KT 9999 FEW015 22/18 Q1015 NOSIG RMK 1CU015 A3000

Time: 07:25 (22:25 UTC)

Forecast

The report was made 5 hours and 19 minutes ago, at 17:06 UTC
Forecast valid from 18 at 18 UTC to 20 at 00 UTC
Wind 6 kt from the North/Northeast
Visibility 10 km or more
Few clouds at a height of 3000 ft
Becoming
from 18 at 23 UTC to 19 at 01 UTC
Wind 8 kt from the East
Becoming
from 19 at 12 UTC to 19 at 15 UTC
Wind 10 kt from the North/Northeast

TAF: RJTT 181706Z 1818/2000 03006KT 9999 FEW030 BECMG 1823/1901 08008KT BECMG 1912/1915 02010KT

Weather observations and forecasts of more than 4000 airports (METAR and TAF reports).

The available stations are represented by yellow and red dots on the map.

Hover mouse over dot to see the name of the station.

Then click to see weather observations and forecasts.

To change the map : click on the green buttons with a black cross to zoom in, on the green button with a dash to zoom out, or on the green arrows for adjacent maps.


METAR-TAF: